Disclaimer

Please do not use the information listed here in-flight or in-navigation, as they are not provided to us by the airports but are provided by volunteers, so they might be outdated.

Search


Regions


Airport information page

Radio informations:
TROMPILLO TWR - 118.3 MHz
Ground (GND) - 121.7 MHz

Airport informations:
Latitude: 17° 48' 41.69" S
Longitude: 063° 10' 17.33" W
Elevation: 1371 feet - 418 meters
Operating hours: From sunrise to sunset (SR-SS)
Operating agency: Military-civil joint use airport
Timezone: UTC-4
Fuel: Jet A1, without icing nhibitor.

Runway information:
15/33 - 9144 x 124 feet< - >2787 x 38 meters

Recent METARs:
SLET 192300Z 13005KT 9999 FEW070 27/18 Q1012
SLET 192300Z 13005KT 9999 FEW070 27/18 Q1012
SLET 192300Z 13005KT 9999 FEW070 27/18 Q1012

Airport on the map: